sensor_id;sensor_type;location;lat;lon;timestamp;P1;durP1;ratioP1;P2;durP2;ratioP2
5147;SDS011;2592;48.140;7.614;2022-08-21T00:02:25;2.80;;;1.57;;
5147;SDS011;2592;48.140;7.614;2022-08-21T00:04:51;2.67;;;1.80;;
5147;SDS011;2592;48.140;7.614;2022-08-21T00:07:19;6.13;;;2.53;;
5147;SDS011;2592;48.140;7.614;2022-08-21T00:09:46;7.43;;;1.80;;
5147;SDS011;2592;48.140;7.614;2022-08-21T00:12:13;6.97;;;2.33;;
5147;SDS011;2592;48.140;7.614;2022-08-21T00:14:41;4.90;;;1.70;;
5147;SDS011;2592;48.140;7.614;2022-08-21T00:17:07;4.93;;;1.57;;
5147;SDS011;2592;48.140;7.614;2022-08-21T00:19:34;13.93;;;1.77;;
5147;SDS011;2592;48.140;7.614;2022-08-21T00:22:00;4.83;;;1.63;;
5147;SDS011;2592;48.140;7.614;2022-08-21T00:24:27;7.13;;;1.90;;
5147;SDS011;2592;48.140;7.614;2022-08-21T00:26:53;6.03;;;2.10;;
5147;SDS011;2592;48.140;7.614;2022-08-21T00:29:19;3.90;;;1.87;;
5147;SDS011;2592;48.140;7.614;2022-08-21T00:31:47;2.50;;;1.60;;
5147;SDS011;2592;48.140;7.614;2022-08-21T00:34:14;7.07;;;2.60;;
5147;SDS011;2592;48.140;7.614;2022-08-21T00:36:40;3.40;;;1.60;;
5147;SDS011;2592;48.140;7.614;2022-08-21T00:39:07;6.67;;;2.33;;
5147;SDS011;2592;48.140;7.614;2022-08-21T00:41:33;6.50;;;1.83;;
5147;SDS011;2592;48.140;7.614;2022-08-21T00:44:00;4.10;;;1.93;;
5147;SDS011;2592;48.140;7.614;2022-08-21T00:46:27;4.40;;;1.87;;
5147;SDS011;2592;48.140;7.614;2022-08-21T00:48:55;4.10;;;1.60;;
5147;SDS011;2592;48.140;7.614;2022-08-21T00:51:21;10.67;;;2.00;;
5147;SDS011;2592;48.140;7.614;2022-08-21T00:53:51;3.93;;;1.83;;
5147;SDS011;2592;48.140;7.614;2022-08-21T00:56:19;9.07;;;1.97;;
5147;SDS011;2592;48.140;7.614;2022-08-21T00:58:46;3.83;;;1.60;;
5147;SDS011;2592;48.140;7.614;2022-08-21T01:01:13;7.67;;;1.97;;
5147;SDS011;2592;48.140;7.614;2022-08-21T01:03:40;6.63;;;1.80;;
5147;SDS011;2592;48.140;7.614;2022-08-21T01:06:07;5.47;;;1.80;;
5147;SDS011;2592;48.140;7.614;2022-08-21T01:08:34;4.00;;;2.33;;
5147;SDS011;2592;48.140;7.614;2022-08-21T01:11:01;4.40;;;1.90;;
5147;SDS011;2592;48.140;7.614;2022-08-21T01:13:28;5.13;;;2.57;;
5147;SDS011;2592;48.140;7.614;2022-08-21T01:15:56;6.73;;;2.67;;
5147;SDS011;2592;48.140;7.614;2022-08-21T01:18:24;7.97;;;2.27;;
5147;SDS011;2592;48.140;7.614;2022-08-21T01:23:40;4.77;;;2.40;;
5147;SDS011;2592;48.140;7.614;2022-08-21T01:26:07;3.10;;;2.20;;
5147;SDS011;2592;48.140;7.614;2022-08-21T01:28:34;6.80;;;2.10;;
5147;SDS011;2592;48.140;7.614;2022-08-21T01:31:02;4.80;;;1.97;;
5147;SDS011;2592;48.140;7.614;2022-08-21T01:33:30;4.30;;;1.83;;
5147;SDS011;2592;48.140;7.614;2022-08-21T01:35:57;6.47;;;2.30;;
5147;SDS011;2592;48.140;7.614;2022-08-21T01:38:24;17.33;;;2.40;;
5147;SDS011;2592;48.140;7.614;2022-08-21T01:40:51;3.53;;;1.60;;
5147;SDS011;2592;48.140;7.614;2022-08-21T01:43:18;16.43;;;1.80;;
5147;SDS011;2592;48.140;7.614;2022-08-21T01:45:44;3.03;;;2.10;;
5147;SDS011;2592;48.140;7.614;2022-08-21T01:48:11;5.77;;;2.53;;
5147;SDS011;2592;48.140;7.614;2022-08-21T01:50:37;4.10;;;1.83;;
5147;SDS011;2592;48.140;7.614;2022-08-21T01:53:04;3.30;;;1.90;;
5147;SDS011;2592;48.140;7.614;2022-08-21T01:55:30;9.27;;;2.50;;
5147;SDS011;2592;48.140;7.614;2022-08-21T01:57:58;4.07;;;1.70;;
5147;SDS011;2592;48.140;7.614;2022-08-21T02:00:25;3.63;;;1.80;;
5147;SDS011;2592;48.140;7.614;2022-08-21T02:02:51;7.17;;;2.20;;
5147;SDS011;2592;48.140;7.614;2022-08-21T02:05:18;5.03;;;1.80;;
5147;SDS011;2592;48.140;7.614;2022-08-21T02:07:46;3.17;;;1.93;;
5147;SDS011;2592;48.140;7.614;2022-08-21T02:10:14;12.23;;;2.03;;
5147;SDS011;2592;48.140;7.614;2022-08-21T02:12:40;3.53;;;1.97;;
5147;SDS011;2592;48.140;7.614;2022-08-21T02:15:08;6.70;;;2.30;;
5147;SDS011;2592;48.140;7.614;2022-08-21T02:17:39;6.20;;;2.00;;
5147;SDS011;2592;48.140;7.614;2022-08-21T02:20:06;3.60;;;1.83;;
5147;SDS011;2592;48.140;7.614;2022-08-21T02:22:33;3.63;;;2.00;;
5147;SDS011;2592;48.140;7.614;2022-08-21T02:24:59;6.87;;;2.10;;
5147;SDS011;2592;48.140;7.614;2022-08-21T02:27:26;5.77;;;2.20;;
5147;SDS011;2592;48.140;7.614;2022-08-21T02:29:53;6.53;;;2.07;;
5147;SDS011;2592;48.140;7.614;2022-08-21T02:32:21;3.07;;;1.53;;
5147;SDS011;2592;48.140;7.614;2022-08-21T02:34:47;6.23;;;1.60;;
5147;SDS011;2592;48.140;7.614;2022-08-21T02:37:13;3.13;;;1.87;;
5147;SDS011;2592;48.140;7.614;2022-08-21T02:39:40;4.10;;;2.13;;
5147;SDS011;2592;48.140;7.614;2022-08-21T02:42:06;4.00;;;2.10;;
5147;SDS011;2592;48.140;7.614;2022-08-21T02:44:33;2.60;;;1.73;;
5147;SDS011;2592;48.140;7.614;2022-08-21T02:46:59;3.83;;;1.53;;
5147;SDS011;2592;48.140;7.614;2022-08-21T02:49:27;4.73;;;2.00;;
5147;SDS011;2592;48.140;7.614;2022-08-21T02:51:53;5.83;;;2.03;;
5147;SDS011;2592;48.140;7.614;2022-08-21T02:54:19;4.03;;;1.90;;
5147;SDS011;2592;48.140;7.614;2022-08-21T02:56:46;3.80;;;2.10;;
5147;SDS011;2592;48.140;7.614;2022-08-21T02:59:12;5.53;;;2.00;;
5147;SDS011;2592;48.140;7.614;2022-08-21T03:01:39;11.20;;;2.27;;
5147;SDS011;2592;48.140;7.614;2022-08-21T03:04:05;5.97;;;2.10;;
5147;SDS011;2592;48.140;7.614;2022-08-21T03:06:33;4.90;;;2.27;;
5147;SDS011;2592;48.140;7.614;2022-08-21T03:08:59;7.40;;;2.43;;
5147;SDS011;2592;48.140;7.614;2022-08-21T03:11:26;5.90;;;2.20;;
5147;SDS011;2592;48.140;7.614;2022-08-21T03:13:52;6.27;;;2.00;;
5147;SDS011;2592;48.140;7.614;2022-08-21T03:16:19;4.40;;;1.97;;
5147;SDS011;2592;48.140;7.614;2022-08-21T03:18:45;4.03;;;1.97;;
5147;SDS011;2592;48.140;7.614;2022-08-21T03:21:12;5.27;;;2.30;;
5147;SDS011;2592;48.140;7.614;2022-08-21T03:23:40;5.90;;;2.03;;
5147;SDS011;2592;48.140;7.614;2022-08-21T03:26:07;7.83;;;2.13;;
5147;SDS011;2592;48.140;7.614;2022-08-21T03:28:33;6.30;;;2.43;;
5147;SDS011;2592;48.140;7.614;2022-08-21T03:30:59;6.33;;;2.60;;
5147;SDS011;2592;48.140;7.614;2022-08-21T03:33:26;6.20;;;2.60;;
5147;SDS011;2592;48.140;7.614;2022-08-21T03:35:56;9.73;;;2.17;;
5147;SDS011;2592;48.140;7.614;2022-08-21T03:38:23;12.20;;;2.50;;
5147;SDS011;2592;48.140;7.614;2022-08-21T03:40:51;6.73;;;2.87;;
5147;SDS011;2592;48.140;7.614;2022-08-21T03:43:17;10.17;;;2.23;;
5147;SDS011;2592;48.140;7.614;2022-08-21T03:45:44;5.63;;;2.03;;
5147;SDS011;2592;48.140;7.614;2022-08-21T03:48:10;4.10;;;2.20;;
5147;SDS011;2592;48.140;7.614;2022-08-21T03:50:38;7.17;;;2.50;;
5147;SDS011;2592;48.140;7.614;2022-08-21T03:53:05;4.70;;;2.57;;
5147;SDS011;2592;48.140;7.614;2022-08-21T03:55:31;7.40;;;2.27;;
5147;SDS011;2592;48.140;7.614;2022-08-21T03:57:59;8.97;;;2.50;;
5147;SDS011;2592;48.140;7.614;2022-08-21T04:00:26;6.17;;;2.17;;
5147;SDS011;2592;48.140;7.614;2022-08-21T04:02:53;5.80;;;2.37;;
5147;SDS011;2592;48.140;7.614;2022-08-21T04:05:19;5.20;;;2.10;;
5147;SDS011;2592;48.140;7.614;2022-08-21T04:07:53;7.53;;;2.57;;
5147;SDS011;2592;48.140;7.614;2022-08-21T04:10:20;4.30;;;2.43;;
5147;SDS011;2592;48.140;7.614;2022-08-21T04:12:46;6.37;;;2.40;;
5147;SDS011;2592;48.140;7.614;2022-08-21T04:15:14;9.50;;;2.57;;
5147;SDS011;2592;48.140;7.614;2022-08-21T04:17:41;6.13;;;2.23;;
5147;SDS011;2592;48.140;7.614;2022-08-21T04:20:07;7.93;;;2.30;;
5147;SDS011;2592;48.140;7.614;2022-08-21T04:22:34;6.00;;;3.40;;
5147;SDS011;2592;48.140;7.614;2022-08-21T04:25:00;5.80;;;1.90;;
5147;SDS011;2592;48.140;7.614;2022-08-21T04:27:27;4.63;;;2.30;;
5147;SDS011;2592;48.140;7.614;2022-08-21T04:29:53;4.50;;;2.40;;
5147;SDS011;2592;48.140;7.614;2022-08-21T04:32:22;1.67;;;1.33;;
5147;SDS011;2592;48.140;7.614;2022-08-21T04:34:49;6.37;;;1.97;;
5147;SDS011;2592;48.140;7.614;2022-08-21T04:37:15;4.43;;;2.30;;
5147;SDS011;2592;48.140;7.614;2022-08-21T04:39:42;4.13;;;2.20;;
5147;SDS011;2592;48.140;7.614;2022-08-21T04:42:08;6.40;;;2.50;;
5147;SDS011;2592;48.140;7.614;2022-08-21T04:44:35;3.90;;;2.30;;
5147;SDS011;2592;48.140;7.614;2022-08-21T04:47:01;5.07;;;1.80;;
5147;SDS011;2592;48.140;7.614;2022-08-21T04:49:29;3.43;;;2.17;;
5147;SDS011;2592;48.140;7.614;2022-08-21T04:51:56;9.80;;;2.37;;
5147;SDS011;2592;48.140;7.614;2022-08-21T04:54:22;8.00;;;2.33;;
5147;SDS011;2592;48.140;7.614;2022-08-21T04:56:49;4.93;;;2.87;;
5147;SDS011;2592;48.140;7.614;2022-08-21T04:59:19;3.10;;;1.97;;
5147;SDS011;2592;48.140;7.614;2022-08-21T05:01:46;3.30;;;2.43;;
5147;SDS011;2592;48.140;7.614;2022-08-21T05:04:14;9.00;;;3.27;;
5147;SDS011;2592;48.140;7.614;2022-08-21T05:06:43;4.87;;;2.60;;
5147;SDS011;2592;48.140;7.614;2022-08-21T05:09:11;6.57;;;2.50;;
5147;SDS011;2592;48.140;7.614;2022-08-21T05:11:38;8.33;;;2.83;;
5147;SDS011;2592;48.140;7.614;2022-08-21T05:14:05;6.60;;;2.23;;
5147;SDS011;2592;48.140;7.614;2022-08-21T05:16:31;4.87;;;2.30;;
5147;SDS011;2592;48.140;7.614;2022-08-21T05:18:58;3.40;;;2.43;;
5147;SDS011;2592;48.140;7.614;2022-08-21T05:21:24;4.70;;;2.23;;
5147;SDS011;2592;48.140;7.614;2022-08-21T05:23:52;6.57;;;2.73;;
5147;SDS011;2592;48.140;7.614;2022-08-21T05:26:18;7.43;;;2.73;;
5147;SDS011;2592;48.140;7.614;2022-08-21T05:28:45;5.83;;;2.63;;
5147;SDS011;2592;48.140;7.614;2022-08-21T05:31:11;7.43;;;2.40;;
5147;SDS011;2592;48.140;7.614;2022-08-21T05:33:38;6.97;;;2.90;;
5147;SDS011;2592;48.140;7.614;2022-08-21T05:36:04;5.00;;;2.60;;
5147;SDS011;2592;48.140;7.614;2022-08-21T05:38:31;4.87;;;2.70;;
5147;SDS011;2592;48.140;7.614;2022-08-21T05:40:58;4.33;;;2.53;;
5147;SDS011;2592;48.140;7.614;2022-08-21T05:43:25;6.43;;;2.90;;
5147;SDS011;2592;48.140;7.614;2022-08-21T05:45:51;7.30;;;3.20;;
5147;SDS011;2592;48.140;7.614;2022-08-21T05:48:19;3.97;;;2.70;;
5147;SDS011;2592;48.140;7.614;2022-08-21T05:50:46;9.23;;;2.50;;
5147;SDS011;2592;48.140;7.614;2022-08-21T05:53:14;6.57;;;2.77;;
5147;SDS011;2592;48.140;7.614;2022-08-21T05:55:41;4.60;;;2.20;;
5147;SDS011;2592;48.140;7.614;2022-08-21T05:58:09;8.10;;;3.30;;
5147;SDS011;2592;48.140;7.614;2022-08-21T06:00:35;5.70;;;3.23;;
5147;SDS011;2592;48.140;7.614;2022-08-21T06:03:02;7.70;;;3.40;;
5147;SDS011;2592;48.140;7.614;2022-08-21T06:05:29;9.90;;;2.77;;
5147;SDS011;2592;48.140;7.614;2022-08-21T06:07:55;6.73;;;3.00;;
5147;SDS011;2592;48.140;7.614;2022-08-21T06:10:22;7.40;;;3.03;;
5147;SDS011;2592;48.140;7.614;2022-08-21T06:12:52;7.40;;;2.97;;
5147;SDS011;2592;48.140;7.614;2022-08-21T06:15:20;4.80;;;2.40;;
5147;SDS011;2592;48.140;7.614;2022-08-21T06:17:46;8.93;;;2.60;;
5147;SDS011;2592;48.140;7.614;2022-08-21T06:20:12;11.37;;;3.53;;
5147;SDS011;2592;48.140;7.614;2022-08-21T06:22:39;7.17;;;2.40;;
5147;SDS011;2592;48.140;7.614;2022-08-21T06:25:06;12.73;;;4.00;;
5147;SDS011;2592;48.140;7.614;2022-08-21T06:27:32;4.50;;;2.70;;
5147;SDS011;2592;48.140;7.614;2022-08-21T06:29:58;8.53;;;3.00;;
5147;SDS011;2592;48.140;7.614;2022-08-21T06:32:26;7.23;;;2.53;;
5147;SDS011;2592;48.140;7.614;2022-08-21T06:34:53;5.03;;;3.00;;
5147;SDS011;2592;48.140;7.614;2022-08-21T06:37:19;6.80;;;3.50;;
5147;SDS011;2592;48.140;7.614;2022-08-21T06:39:45;8.67;;;3.10;;
5147;SDS011;2592;48.140;7.614;2022-08-21T06:42:15;6.40;;;2.60;;
5147;SDS011;2592;48.140;7.614;2022-08-21T06:44:43;6.67;;;3.27;;
5147;SDS011;2592;48.140;7.614;2022-08-21T06:47:09;6.40;;;2.50;;
5147;SDS011;2592;48.140;7.614;2022-08-21T06:49:37;5.80;;;2.47;;
5147;SDS011;2592;48.140;7.614;2022-08-21T06:52:03;6.97;;;2.90;;
5147;SDS011;2592;48.140;7.614;2022-08-21T06:54:34;6.27;;;2.70;;
5147;SDS011;2592;48.140;7.614;2022-08-21T06:57:00;5.93;;;2.50;;
5147;SDS011;2592;48.140;7.614;2022-08-21T06:59:27;4.20;;;3.00;;
5147;SDS011;2592;48.140;7.614;2022-08-21T07:01:53;6.13;;;2.87;;
5147;SDS011;2592;48.140;7.614;2022-08-21T07:04:19;6.10;;;2.53;;
5147;SDS011;2592;48.140;7.614;2022-08-21T07:06:47;5.50;;;2.13;;
5147;SDS011;2592;48.140;7.614;2022-08-21T07:09:14;2.80;;;2.07;;
5147;SDS011;2592;48.140;7.614;2022-08-21T07:11:40;6.67;;;3.33;;
5147;SDS011;2592;48.140;7.614;2022-08-21T07:14:07;5.43;;;2.23;;
5147;SDS011;2592;48.140;7.614;2022-08-21T07:16:33;8.40;;;2.63;;
5147;SDS011;2592;48.140;7.614;2022-08-21T07:19:00;3.63;;;2.53;;
5147;SDS011;2592;48.140;7.614;2022-08-21T07:21:26;5.10;;;2.80;;
5147;SDS011;2592;48.140;7.614;2022-08-21T07:23:54;3.63;;;2.07;;
5147;SDS011;2592;48.140;7.614;2022-08-21T07:26:21;6.77;;;3.00;;
5147;SDS011;2592;48.140;7.614;2022-08-21T07:28:48;4.80;;;2.93;;
5147;SDS011;2592;48.140;7.614;2022-08-21T07:31:15;6.20;;;2.30;;
5147;SDS011;2592;48.140;7.614;2022-08-21T07:33:42;4.83;;;2.80;;
5147;SDS011;2592;48.140;7.614;2022-08-21T07:36:09;4.10;;;2.20;;
5147;SDS011;2592;48.140;7.614;2022-08-21T07:38:35;5.20;;;2.37;;
5147;SDS011;2592;48.140;7.614;2022-08-21T07:41:05;5.70;;;2.40;;
5147;SDS011;2592;48.140;7.614;2022-08-21T07:43:32;8.33;;;2.07;;
5147;SDS011;2592;48.140;7.614;2022-08-21T07:45:59;5.77;;;2.47;;
5147;SDS011;2592;48.140;7.614;2022-08-21T07:48:25;6.60;;;2.50;;
5147;SDS011;2592;48.140;7.614;2022-08-21T07:50:52;4.97;;;2.00;;
5147;SDS011;2592;48.140;7.614;2022-08-21T07:53:20;7.70;;;2.83;;
5147;SDS011;2592;48.140;7.614;2022-08-21T07:55:46;8.03;;;2.27;;
5147;SDS011;2592;48.140;7.614;2022-08-21T07:58:14;7.50;;;2.40;;
5147;SDS011;2592;48.140;7.614;2022-08-21T08:00:40;7.00;;;2.40;;
5147;SDS011;2592;48.140;7.614;2022-08-21T08:03:07;6.23;;;2.50;;
5147;SDS011;2592;48.140;7.614;2022-08-21T08:05:33;4.33;;;2.53;;
5147;SDS011;2592;48.140;7.614;2022-08-21T08:08:02;7.13;;;2.60;;
5147;SDS011;2592;48.140;7.614;2022-08-21T08:10:29;5.07;;;2.40;;
5147;SDS011;2592;48.140;7.614;2022-08-21T08:12:55;7.20;;;2.33;;
5147;SDS011;2592;48.140;7.614;2022-08-21T08:15:24;9.00;;;3.00;;
5147;SDS011;2592;48.140;7.614;2022-08-21T08:17:51;5.00;;;2.37;;
5147;SDS011;2592;48.140;7.614;2022-08-21T08:20:18;5.63;;;2.90;;
5147;SDS011;2592;48.140;7.614;2022-08-21T08:22:45;9.00;;;2.90;;
5147;SDS011;2592;48.140;7.614;2022-08-21T08:25:12;6.57;;;2.73;;
5147;SDS011;2592;48.140;7.614;2022-08-21T08:27:39;4.77;;;2.23;;
5147;SDS011;2592;48.140;7.614;2022-08-21T08:30:06;6.50;;;2.20;;
5147;SDS011;2592;48.140;7.614;2022-08-21T08:32:34;5.97;;;2.90;;
5147;SDS011;2592;48.140;7.614;2022-08-21T08:35:01;7.30;;;2.70;;
5147;SDS011;2592;48.140;7.614;2022-08-21T08:37:27;10.37;;;3.20;;
5147;SDS011;2592;48.140;7.614;2022-08-21T08:39:54;7.93;;;3.00;;
5147;SDS011;2592;48.140;7.614;2022-08-21T08:42:22;7.90;;;2.80;;
5147;SDS011;2592;48.140;7.614;2022-08-21T08:44:49;7.20;;;2.30;;
5147;SDS011;2592;48.140;7.614;2022-08-21T08:47:21;4.20;;;2.27;;
5147;SDS011;2592;48.140;7.614;2022-08-21T08:49:52;7.40;;;2.63;;
5147;SDS011;2592;48.140;7.614;2022-08-21T08:52:20;13.70;;;3.47;;
5147;SDS011;2592;48.140;7.614;2022-08-21T08:54:49;7.53;;;2.40;;
5147;SDS011;2592;48.140;7.614;2022-08-21T08:57:18;8.80;;;3.07;;
5147;SDS011;2592;48.140;7.614;2022-08-21T08:59:46;10.77;;;3.47;;
5147;SDS011;2592;48.140;7.614;2022-08-21T09:02:14;8.33;;;3.10;;
5147;SDS011;2592;48.140;7.614;2022-08-21T09:04:41;10.53;;;3.20;;
5147;SDS011;2592;48.140;7.614;2022-08-21T09:07:12;9.10;;;2.77;;
5147;SDS011;2592;48.140;7.614;2022-08-21T09:09:46;11.90;;;2.67;;
5147;SDS011;2592;48.140;7.614;2022-08-21T09:12:15;5.00;;;3.27;;
5147;SDS011;2592;48.140;7.614;2022-08-21T09:14:47;8.70;;;3.40;;
5147;SDS011;2592;48.140;7.614;2022-08-21T09:17:19;6.67;;;2.87;;
5147;SDS011;2592;48.140;7.614;2022-08-21T09:19:49;11.13;;;3.40;;
5147;SDS011;2592;48.140;7.614;2022-08-21T09:22:28;8.07;;;3.50;;
5147;SDS011;2592;48.140;7.614;2022-08-21T09:24:59;7.60;;;2.57;;
5147;SDS011;2592;48.140;7.614;2022-08-21T09:27:28;5.50;;;2.80;;
5147;SDS011;2592;48.140;7.614;2022-08-21T09:29:55;6.47;;;2.60;;
5147;SDS011;2592;48.140;7.614;2022-08-21T09:32:23;6.60;;;3.20;;
5147;SDS011;2592;48.140;7.614;2022-08-21T09:34:57;7.37;;;2.80;;
5147;SDS011;2592;48.140;7.614;2022-08-21T09:37:25;9.07;;;3.83;;
5147;SDS011;2592;48.140;7.614;2022-08-21T09:39:53;8.07;;;2.80;;
5147;SDS011;2592;48.140;7.614;2022-08-21T09:42:23;7.20;;;3.10;;
5147;SDS011;2592;48.140;7.614;2022-08-21T09:45:00;10.77;;;3.40;;
5147;SDS011;2592;48.140;7.614;2022-08-21T09:47:30;8.87;;;2.70;;
5147;SDS011;2592;48.140;7.614;2022-08-21T09:49:56;8.53;;;3.33;;
5147;SDS011;2592;48.140;7.614;2022-08-21T09:52:34;6.07;;;3.17;;
5147;SDS011;2592;48.140;7.614;2022-08-21T09:55:00;8.30;;;3.07;;
5147;SDS011;2592;48.140;7.614;2022-08-21T09:57:47;11.77;;;3.37;;
5147;SDS011;2592;48.140;7.614;2022-08-21T10:00:15;13.27;;;3.00;;
5147;SDS011;2592;48.140;7.614;2022-08-21T10:02:44;10.83;;;3.40;;
5147;SDS011;2592;48.140;7.614;2022-08-21T10:05:15;9.53;;;3.00;;
5147;SDS011;2592;48.140;7.614;2022-08-21T10:07:43;5.80;;;2.93;;
5147;SDS011;2592;48.140;7.614;2022-08-21T10:10:14;13.77;;;3.10;;
5147;SDS011;2592;48.140;7.614;2022-08-21T10:12:42;7.10;;;3.23;;
5147;SDS011;2592;48.140;7.614;2022-08-21T10:15:13;14.90;;;3.03;;
5147;SDS011;2592;48.140;7.614;2022-08-21T10:17:44;4.90;;;2.90;;
5147;SDS011;2592;48.140;7.614;2022-08-21T10:20:11;7.40;;;3.20;;
5147;SDS011;2592;48.140;7.614;2022-08-21T10:22:41;15.53;;;3.10;;
5147;SDS011;2592;48.140;7.614;2022-08-21T10:25:14;7.20;;;3.33;;
5147;SDS011;2592;48.140;7.614;2022-08-21T10:27:46;7.73;;;2.70;;
5147;SDS011;2592;48.140;7.614;2022-08-21T10:30:14;12.43;;;3.10;;
5147;SDS011;2592;48.140;7.614;2022-08-21T10:32:54;6.73;;;2.57;;
5147;SDS011;2592;48.140;7.614;2022-08-21T10:35:24;5.53;;;2.47;;
5147;SDS011;2592;48.140;7.614;2022-08-21T10:38:07;8.20;;;2.30;;
5147;SDS011;2592;48.140;7.614;2022-08-21T10:40:40;8.00;;;3.40;;
5147;SDS011;2592;48.140;7.614;2022-08-21T10:43:18;8.23;;;2.80;;
5147;SDS011;2592;48.140;7.614;2022-08-21T10:45:50;6.43;;;2.50;;
5147;SDS011;2592;48.140;7.614;2022-08-21T10:48:22;8.50;;;2.70;;
5147;SDS011;2592;48.140;7.614;2022-08-21T10:50:52;5.20;;;2.57;;
5147;SDS011;2592;48.140;7.614;2022-08-21T10:53:29;6.63;;;2.30;;
5147;SDS011;2592;48.140;7.614;2022-08-21T10:56:01;7.60;;;2.60;;
5147;SDS011;2592;48.140;7.614;2022-08-21T10:58:29;10.47;;;3.47;;
5147;SDS011;2592;48.140;7.614;2022-08-21T11:00:57;6.77;;;2.73;;
5147;SDS011;2592;48.140;7.614;2022-08-21T11:03:25;7.53;;;2.10;;
5147;SDS011;2592;48.140;7.614;2022-08-21T11:05:55;6.33;;;2.10;;
5147;SDS011;2592;48.140;7.614;2022-08-21T11:08:26;5.53;;;2.50;;
5147;SDS011;2592;48.140;7.614;2022-08-21T11:10:53;10.23;;;2.30;;
5147;SDS011;2592;48.140;7.614;2022-08-21T11:13:25;6.07;;;2.40;;
5147;SDS011;2592;48.140;7.614;2022-08-21T11:15:55;6.17;;;2.43;;
5147;SDS011;2592;48.140;7.614;2022-08-21T11:18:23;9.20;;;2.37;;
5147;SDS011;2592;48.140;7.614;2022-08-21T11:20:54;8.27;;;2.30;;
5147;SDS011;2592;48.140;7.614;2022-08-21T11:23:25;6.57;;;2.33;;
5147;SDS011;2592;48.140;7.614;2022-08-21T11:25:58;8.47;;;3.00;;
5147;SDS011;2592;48.140;7.614;2022-08-21T11:28:29;5.27;;;2.57;;
5147;SDS011;2592;48.140;7.614;2022-08-21T11:30:59;4.73;;;2.47;;
5147;SDS011;2592;48.140;7.614;2022-08-21T11:33:35;4.20;;;1.90;;
5147;SDS011;2592;48.140;7.614;2022-08-21T11:36:08;5.80;;;2.10;;
5147;SDS011;2592;48.140;7.614;2022-08-21T11:38:39;7.93;;;2.47;;
5147;SDS011;2592;48.140;7.614;2022-08-21T11:41:13;6.40;;;2.37;;
5147;SDS011;2592;48.140;7.614;2022-08-21T11:43:45;7.40;;;2.67;;
5147;SDS011;2592;48.140;7.614;2022-08-21T11:46:17;6.97;;;2.40;;
5147;SDS011;2592;48.140;7.614;2022-08-21T11:48:47;8.57;;;3.10;;
5147;SDS011;2592;48.140;7.614;2022-08-21T11:51:17;7.13;;;2.30;;
5147;SDS011;2592;48.140;7.614;2022-08-21T11:53:46;7.23;;;2.77;;
5147;SDS011;2592;48.140;7.614;2022-08-21T11:56:17;5.93;;;2.03;;
5147;SDS011;2592;48.140;7.614;2022-08-21T11:58:47;6.90;;;2.43;;
5147;SDS011;2592;48.140;7.614;2022-08-21T12:01:16;6.10;;;2.30;;
5147;SDS011;2592;48.140;7.614;2022-08-21T12:03:51;3.47;;;1.90;;
5147;SDS011;2592;48.140;7.614;2022-08-21T12:06:27;5.83;;;1.87;;
5147;SDS011;2592;48.140;7.614;2022-08-21T12:08:57;8.30;;;1.87;;
5147;SDS011;2592;48.140;7.614;2022-08-21T12:11:24;4.13;;;1.63;;
5147;SDS011;2592;48.140;7.614;2022-08-21T12:13:56;5.70;;;2.20;;
5147;SDS011;2592;48.140;7.614;2022-08-21T12:16:30;6.47;;;2.33;;
5147;SDS011;2592;48.140;7.614;2022-08-21T12:19:03;6.60;;;2.27;;
5147;SDS011;2592;48.140;7.614;2022-08-21T12:21:29;7.77;;;1.70;;
5147;SDS011;2592;48.140;7.614;2022-08-21T12:24:00;3.60;;;2.00;;
5147;SDS011;2592;48.140;7.614;2022-08-21T12:26:28;4.80;;;1.97;;
5147;SDS011;2592;48.140;7.614;2022-08-21T12:29:06;5.60;;;1.70;;
5147;SDS011;2592;48.140;7.614;2022-08-21T12:31:34;4.13;;;1.70;;
5147;SDS011;2592;48.140;7.614;2022-08-21T12:34:01;7.57;;;1.77;;
5147;SDS011;2592;48.140;7.614;2022-08-21T12:36:45;3.67;;;1.80;;
5147;SDS011;2592;48.140;7.614;2022-08-21T12:39:14;4.93;;;1.87;;
5147;SDS011;2592;48.140;7.614;2022-08-21T12:41:45;7.33;;;1.90;;
5147;SDS011;2592;48.140;7.614;2022-08-21T12:44:15;5.07;;;2.10;;
5147;SDS011;2592;48.140;7.614;2022-08-21T12:46:44;3.60;;;1.70;;
5147;SDS011;2592;48.140;7.614;2022-08-21T12:49:13;3.77;;;1.77;;
5147;SDS011;2592;48.140;7.614;2022-08-21T12:51:45;5.73;;;2.10;;
5147;SDS011;2592;48.140;7.614;2022-08-21T12:54:20;7.50;;;1.80;;
5147;SDS011;2592;48.140;7.614;2022-08-21T12:56:55;4.40;;;1.40;;
5147;SDS011;2592;48.140;7.614;2022-08-21T12:59:23;5.43;;;2.03;;
5147;SDS011;2592;48.140;7.614;2022-08-21T13:01:50;6.73;;;1.63;;
5147;SDS011;2592;48.140;7.614;2022-08-21T13:04:17;3.80;;;1.90;;
5147;SDS011;2592;48.140;7.614;2022-08-21T13:06:46;6.63;;;1.73;;
5147;SDS011;2592;48.140;7.614;2022-08-21T13:09:14;8.40;;;2.13;;
5147;SDS011;2592;48.140;7.614;2022-08-21T13:11:42;5.03;;;1.43;;
5147;SDS011;2592;48.140;7.614;2022-08-21T13:14:13;2.93;;;1.50;;
5147;SDS011;2592;48.140;7.614;2022-08-21T13:16:42;2.73;;;1.53;;
5147;SDS011;2592;48.140;7.614;2022-08-21T13:19:11;2.30;;;1.53;;
5147;SDS011;2592;48.140;7.614;2022-08-21T13:21:39;3.67;;;1.53;;
5147;SDS011;2592;48.140;7.614;2022-08-21T13:24:10;2.87;;;1.50;;
5147;SDS011;2592;48.140;7.614;2022-08-21T13:26:36;4.27;;;2.13;;
5147;SDS011;2592;48.140;7.614;2022-08-21T13:29:06;3.53;;;1.40;;
5147;SDS011;2592;48.140;7.614;2022-08-21T13:31:33;3.77;;;1.80;;
5147;SDS011;2592;48.140;7.614;2022-08-21T13:34:01;2.50;;;1.30;;
5147;SDS011;2592;48.140;7.614;2022-08-21T13:36:29;7.43;;;1.40;;
5147;SDS011;2592;48.140;7.614;2022-08-21T13:38:56;4.57;;;1.77;;
5147;SDS011;2592;48.140;7.614;2022-08-21T13:41:24;4.00;;;1.57;;
5147;SDS011;2592;48.140;7.614;2022-08-21T13:43:56;3.73;;;2.00;;
5147;SDS011;2592;48.140;7.614;2022-08-21T13:46:24;4.90;;;2.20;;
5147;SDS011;2592;48.140;7.614;2022-08-21T13:48:52;8.27;;;1.60;;
5147;SDS011;2592;48.140;7.614;2022-08-21T13:51:20;4.83;;;2.23;;
5147;SDS011;2592;48.140;7.614;2022-08-21T13:53:48;4.97;;;2.40;;
5147;SDS011;2592;48.140;7.614;2022-08-21T13:56:24;5.43;;;2.20;;
5147;SDS011;2592;48.140;7.614;2022-08-21T13:58:51;4.73;;;2.30;;
5147;SDS011;2592;48.140;7.614;2022-08-21T14:01:19;3.57;;;1.77;;
5147;SDS011;2592;48.140;7.614;2022-08-21T14:03:46;5.87;;;2.30;;
5147;SDS011;2592;48.140;7.614;2022-08-21T14:06:16;4.63;;;1.63;;
5147;SDS011;2592;48.140;7.614;2022-08-21T14:08:48;7.80;;;2.00;;
5147;SDS011;2592;48.140;7.614;2022-08-21T14:11:15;3.60;;;1.67;;
5147;SDS011;2592;48.140;7.614;2022-08-21T14:13:43;3.00;;;1.63;;
5147;SDS011;2592;48.140;7.614;2022-08-21T14:16:12;9.50;;;1.60;;
5147;SDS011;2592;48.140;7.614;2022-08-21T14:18:43;5.23;;;2.00;;
5147;SDS011;2592;48.140;7.614;2022-08-21T14:21:10;3.60;;;1.90;;
5147;SDS011;2592;48.140;7.614;2022-08-21T14:23:36;4.50;;;1.63;;
5147;SDS011;2592;48.140;7.614;2022-08-21T14:26:05;3.47;;;1.63;;
5147;SDS011;2592;48.140;7.614;2022-08-21T14:28:33;5.13;;;1.77;;
5147;SDS011;2592;48.140;7.614;2022-08-21T14:31:10;3.93;;;1.60;;
5147;SDS011;2592;48.140;7.614;2022-08-21T14:33:37;2.83;;;1.60;;
5147;SDS011;2592;48.140;7.614;2022-08-21T14:36:04;5.80;;;2.17;;
5147;SDS011;2592;48.140;7.614;2022-08-21T14:38:30;4.30;;;2.00;;
5147;SDS011;2592;48.140;7.614;2022-08-21T14:40:59;2.80;;;1.43;;
5147;SDS011;2592;48.140;7.614;2022-08-21T14:43:27;3.23;;;2.03;;
5147;SDS011;2592;48.140;7.614;2022-08-21T14:45:54;3.23;;;1.90;;
5147;SDS011;2592;48.140;7.614;2022-08-21T14:48:21;5.30;;;1.50;;
5147;SDS011;2592;48.140;7.614;2022-08-21T14:50:47;2.60;;;1.60;;
5147;SDS011;2592;48.140;7.614;2022-08-21T14:53:14;2.17;;;1.30;;
5147;SDS011;2592;48.140;7.614;2022-08-21T14:55:41;1.87;;;1.30;;
5147;SDS011;2592;48.140;7.614;2022-08-21T14:58:26;4.97;;;1.80;;
5147;SDS011;2592;48.140;7.614;2022-08-21T15:00:53;3.90;;;1.80;;
5147;SDS011;2592;48.140;7.614;2022-08-21T15:03:21;5.50;;;1.70;;
5147;SDS011;2592;48.140;7.614;2022-08-21T15:05:47;5.23;;;2.00;;
5147;SDS011;2592;48.140;7.614;2022-08-21T15:08:14;2.07;;;1.40;;
5147;SDS011;2592;48.140;7.614;2022-08-21T15:10:41;3.93;;;1.80;;
5147;SDS011;2592;48.140;7.614;2022-08-21T15:13:08;2.90;;;1.50;;
5147;SDS011;2592;48.140;7.614;2022-08-21T15:15:40;6.23;;;2.20;;
5147;SDS011;2592;48.140;7.614;2022-08-21T15:18:07;3.30;;;1.53;;
5147;SDS011;2592;48.140;7.614;2022-08-21T15:20:33;2.50;;;1.60;;
5147;SDS011;2592;48.140;7.614;2022-08-21T15:22:59;6.97;;;1.90;;
5147;SDS011;2592;48.140;7.614;2022-08-21T15:25:26;3.43;;;1.80;;